Time;durP1;ratioP1;P1;durP2;ratioP2;P2;SDS_P1;SDS_P2;PMS_P1;PMS_P2;Temp;Humidity;BMP_temperature;BMP_pressure;BME280_temperature;BME280_humidity;BME280_pressure;Samples;Min_cycle;Max_cycle;Signal;HPM_P1;HPM_P2
2022/09/06 00:01:48;;;;;;;1.20;1.10;;;;;;;18.75;89.62;95666.97;4336586;32;20191;-59
2022/09/06 00:04:14;;;;;;;1.37;1.37;;;;;;;18.70;90.01;95676.06;4335092;32;20295;-59
2022/09/06 00:06:41;;;;;;;1.07;1.07;;;;;;;18.73;90.04;95674.56;4336239;32;20194;-59
2022/09/06 00:09:09;;;;;;;1.37;1.37;;;;;;;18.69;89.91;95668.31;4353665;32;20185;-60
2022/09/06 00:11:37;;;;;;;3.30;1.40;;;;;;;18.86;89.54;95668.09;4323372;32;20217;-59
2022/09/06 00:14:06;;;;;;;1.23;1.23;;;;;;;18.79;90.08;95665.94;4331423;32;20193;-59
2022/09/06 00:16:32;;;;;;;1.80;1.80;;;;;;;18.80;89.94;95672.13;4295427;32;20216;-59
2022/09/06 00:18:57;;;;;;;1.00;1.00;;;;;;;18.87;89.46;95672.34;4317922;32;20181;-59
2022/09/06 00:21:28;;;;;;;1.23;1.23;;;;;;;18.73;89.92;95671.87;4347752;32;20343;-59
2022/09/06 00:23:54;;;;;;;1.10;1.10;;;;;;;18.85;89.05;95674.59;4346135;32;20292;-59
2022/09/06 00:26:21;;;;;;;1.27;1.27;;;;;;;18.84;89.19;95676.50;4324074;32;20177;-59
2022/09/06 00:28:50;;;;;;;1.50;0.93;;;;;;;18.85;89.25;95675.38;4331896;32;20267;-59
2022/09/06 00:31:23;;;;;;;1.07;1.07;;;;;;;18.75;90.15;95685.78;4317766;32;20255;-61
2022/09/06 00:33:50;;;;;;;1.63;0.93;;;;;;;18.71;90.10;95674.13;4323124;32;20238;-59
2022/09/06 00:36:17;;;;;;;1.40;1.17;;;;;;;18.71;89.97;95672.22;4338127;32;20224;-59
2022/09/06 00:38:42;;;;;;;0.83;0.83;;;;;;;18.51;89.86;95670.38;4305930;32;20189;-59
2022/09/06 00:41:14;;;;;;;0.90;0.90;;;;;;;18.53;90.04;95681.59;4290940;33;20200;-59
2022/09/06 00:43:41;;;;;;;1.00;1.00;;;;;;;18.53;89.73;95663.56;4342720;32;20195;-59
2022/09/06 00:46:18;;;;;;;1.23;1.23;;;;;;;18.59;89.74;95676.78;4339814;32;20185;-59
2022/09/06 00:48:51;;;;;;;2.00;1.73;;;;;;;18.42;90.30;95678.56;4312919;32;20177;-62
2022/09/06 00:51:19;;;;;;;1.10;0.90;;;;;;;18.44;91.32;95676.34;4317111;32;20235;-59
2022/09/06 00:53:46;;;;;;;0.93;0.93;;;;;;;18.45;91.09;95685.19;4348650;32;20184;-59
2022/09/06 00:56:12;;;;;;;0.50;0.50;;;;;;;18.50;91.10;95683.03;4302995;32;20264;-58
2022/09/06 00:58:39;;;;;;;1.33;1.23;;;;;;;18.63;90.69;95685.78;4333023;32;20216;-57
2022/09/06 01:01:06;;;;;;;0.73;0.73;;;;;;;18.69;90.23;95681.75;4354024;32;20185;-59
2022/09/06 01:03:33;;;;;;;1.13;1.13;;;;;;;18.57;90.18;95684.41;4355576;32;20227;-59
2022/09/06 01:06:05;;;;;;;1.23;1.23;;;;;;;18.61;90.64;95693.41;4333133;32;20193;-59
2022/09/06 01:08:33;;;;;;;0.83;0.83;;;;;;;18.65;89.79;95678.97;4334516;32;20200;-59
2022/09/06 01:11:25;;;;;;;1.10;1.10;;;;;;;18.60;89.41;95689.13;4315597;32;20216;-59
2022/09/06 01:14:29;;;;;;;1.27;1.27;;;;;;;18.70;89.29;95681.44;4316487;32;20185;-61
2022/09/06 01:17:26;;;;;;;0.93;0.93;;;;;;;18.68;89.29;95685.56;4339220;32;20215;-58
2022/09/06 01:20:23;;;;;;;1.73;1.43;;;;;;;18.70;88.89;95688.72;4319599;32;20190;-59
2022/09/06 01:23:27;;;;;;;1.40;1.40;;;;;;;18.59;89.76;95693.72;4347605;32;20178;-59
2022/09/06 01:26:32;;;;;;;1.00;1.00;;;;;;;18.46;89.86;95689.44;4342451;32;20203;-58
2022/09/06 01:29:00;;;;;;;2.50;1.17;;;;;;;18.36;90.05;95692.53;4286902;32;20188;-58
2022/09/06 01:31:37;;;;;;;0.90;0.90;;;;;;;18.42;90.11;95694.69;4341197;32;20189;-59
2022/09/06 01:34:25;;;;;;;1.10;1.10;;;;;;;18.47;90.03;95685.63;4351699;32;20265;-59
2022/09/06 01:37:11;;;;;;;1.33;1.00;;;;;;;18.49;89.37;95681.50;4352989;32;20184;-59
2022/09/06 01:39:40;;;;;;;1.90;1.30;;;;;;;18.55;89.69;95690.88;4358339;32;20204;-59
2022/09/06 01:42:18;;;;;;;1.40;1.40;;;;;;;18.47;89.71;95681.03;4332108;32;20235;-59
2022/09/06 01:44:59;;;;;;;0.93;0.93;;;;;;;18.40;90.81;95691.53;4337093;32;20251;-59
2022/09/06 01:47:56;;;;;;;1.10;1.10;;;;;;;18.31;90.43;95688.16;4337473;32;20267;-59
2022/09/06 01:51:05;;;;;;;1.50;1.40;;;;;;;18.30;91.00;95697.34;4342491;32;20189;-60
2022/09/06 01:54:10;;;;;;;0.90;0.90;;;;;;;18.36;90.52;95705.97;4347428;32;20239;-59
2022/09/06 01:56:40;;;;;;;1.27;1.27;;;;;;;18.46;90.11;95700.97;4332396;32;20247;-59
2022/09/06 01:59:29;;;;;;;0.90;0.90;;;;;;;18.41;89.84;95698.50;4348823;32;20256;-59
2022/09/06 02:02:12;;;;;;;0.60;0.60;;;;;;;18.37;90.01;95702.97;4343131;32;20277;-59
2022/09/06 02:05:11;;;;;;;1.00;1.00;;;;;;;18.37;89.65;95699.47;4356837;32;20197;-61
2022/09/06 02:07:43;;;;;;;0.60;0.60;;;;;;;18.27;89.97;95694.56;4306172;32;20257;-59
2022/09/06 02:10:33;;;;;;;1.27;1.27;;;;;;;18.41;89.47;95692.34;4328951;32;20189;-61
2022/09/06 02:13:03;;;;;;;2.83;1.80;;;;;;;18.41;89.56;95693.13;4345629;32;20204;-59
2022/09/06 02:15:36;;;;;;;1.40;1.40;;;;;;;18.29;89.93;95689.63;4349684;32;20180;-59
2022/09/06 02:18:19;;;;;;;0.80;0.80;;;;;;;18.22;90.08;95700.13;4295578;33;20203;-59
2022/09/06 02:20:52;;;;;;;0.90;0.90;;;;;;;18.30;90.19;95696.56;4340478;32;20223;-59
2022/09/06 02:23:24;;;;;;;1.13;1.10;;;;;;;18.16;90.39;95691.50;4308675;32;20220;-59
2022/09/06 02:25:55;;;;;;;0.80;0.80;;;;;;;18.21;89.59;95688.59;4339531;32;20251;-59
2022/09/06 02:28:23;;;;;;;1.23;1.13;;;;;;;18.07;90.92;95683.53;4349667;32;20231;-59
2022/09/06 02:30:57;;;;;;;1.53;1.03;;;;;;;18.06;90.08;95683.88;4342891;32;20189;-59
2022/09/06 02:33:29;;;;;;;1.07;1.07;;;;;;;18.09;89.58;95686.66;4343975;32;20179;-59
2022/09/06 02:36:04;;;;;;;2.00;1.60;;;;;;;18.19;89.87;95690.84;4353266;32;20252;-57
2022/09/06 02:38:33;;;;;;;0.80;0.80;;;;;;;18.06;90.37;95686.56;4313531;32;20189;-59
2022/09/06 02:41:11;;;;;;;1.57;1.47;;;;;;;18.09;90.10;95691.25;4330399;32;20243;-59
2022/09/06 02:43:51;;;;;;;1.50;1.30;;;;;;;18.18;90.14;95695.41;4350633;32;20185;-60
2022/09/06 02:46:17;;;;;;;1.30;1.30;;;;;;;18.15;89.84;95679.97;4343205;32;20240;-59
2022/09/06 02:48:45;;;;;;;1.10;1.10;;;;;;;18.18;90.88;95678.53;4328679;32;20200;-59
2022/09/06 02:51:14;;;;;;;1.03;1.03;;;;;;;17.98;90.20;95680.16;4344271;32;20200;-59
2022/09/06 02:53:40;;;;;;;1.43;0.80;;;;;;;18.22;89.46;95684.81;4335817;32;20193;-59
2022/09/06 02:56:06;;;;;;;0.90;0.90;;;;;;;18.13;89.53;95689.47;4301006;32;20239;-61
2022/09/06 02:58:33;;;;;;;0.80;0.80;;;;;;;18.22;89.82;95692.84;4340227;32;20248;-59
2022/09/06 03:01:00;;;;;;;0.83;0.83;;;;;;;18.15;89.96;95696.09;4334560;32;20192;-59
2022/09/06 03:03:26;;;;;;;0.67;0.67;;;;;;;18.12;89.76;95695.94;4314644;32;20193;-59
2022/09/06 03:05:56;;;;;;;0.90;0.90;;;;;;;18.16;89.50;95696.88;4333767;32;20255;-59
2022/09/06 03:08:32;;;;;;;7.57;1.43;;;;;;;18.17;89.74;95695.75;4320635;32;20200;-59
2022/09/06 03:11:01;;;;;;;0.83;0.83;;;;;;;17.96;89.43;95686.97;4301539;33;20209;-59
2022/09/06 03:13:27;;;;;;;0.50;0.50;;;;;;;18.08;90.20;95692.38;4294802;32;20284;-59
2022/09/06 03:15:58;;;;;;;0.93;0.93;;;;;;;17.89;89.74;95698.22;4345639;32;20222;-59
2022/09/06 03:18:28;;;;;;;5.63;1.30;;;;;;;18.09;89.85;95691.25;4311388;32;20301;-58
2022/09/06 03:20:57;;;;;;;1.30;1.20;;;;;;;18.06;90.07;95686.56;4318949;32;20259;-59
2022/09/06 03:23:28;;;;;;;0.70;0.70;;;;;;;18.08;88.74;95684.31;4330387;32;20261;-59
2022/09/06 03:25:55;;;;;;;0.90;0.90;;;;;;;18.01;89.78;95689.44;4350298;32;20185;-59
2022/09/06 03:28:22;;;;;;;1.97;1.30;;;;;;;17.98;89.70;95687.41;4312892;32;20197;-59
2022/09/06 03:30:51;;;;;;;0.97;0.97;;;;;;;18.10;89.65;95674.81;4298350;33;20206;-59
2022/09/06 03:33:18;;;;;;;2.03;1.70;;;;;;;17.93;90.50;95682.25;4344224;32;20208;-60
2022/09/06 03:36:08;;;;;;;1.07;1.07;;;;;;;17.89;90.12;95675.97;4356522;32;20226;-59
2022/09/06 03:38:34;;;;;;;1.30;1.30;;;;;;;17.90;90.46;95672.16;4336803;32;20207;-58
2022/09/06 03:41:00;;;;;;;1.73;1.63;;;;;;;17.93;90.02;95674.97;4350071;32;20185;-59
2022/09/06 03:43:26;;;;;;;1.07;1.00;;;;;;;17.99;89.59;95670.19;4319779;32;20227;-62
2022/09/06 03:45:58;;;;;;;1.80;1.70;;;;;;;17.94;89.51;95667.72;4343931;32;20197;-59
2022/09/06 03:48:37;;;;;;;0.50;0.50;;;;;;;17.99;89.99;95670.97;4292707;32;20482;-58
2022/09/06 03:51:08;;;;;;;1.37;1.27;;;;;;;17.92;90.07;95665.34;4311689;32;20193;-59
2022/09/06 03:53:40;;;;;;;1.27;1.23;;;;;;;17.95;90.05;95664.69;4347221;32;20220;-61
2022/09/06 03:56:08;;;;;;;1.00;1.00;;;;;;;18.05;89.52;95664.28;4352675;32;20216;-59
2022/09/06 03:58:35;;;;;;;1.03;1.03;;;;;;;18.00;89.92;95666.41;4342392;32;20215;-62
2022/09/06 04:01:11;;;;;;;1.03;1.03;;;;;;;17.98;89.98;95668.62;4347866;32;20193;-59
2022/09/06 04:03:39;;;;;;;1.17;1.07;;;;;;;17.89;89.59;95671.37;4305678;32;20240;-59
2022/09/06 04:06:07;;;;;;;0.97;0.97;;;;;;;17.91;89.37;95666.47;4327802;32;20201;-59
2022/09/06 04:08:38;;;;;;;1.47;1.37;;;;;;;17.94;89.84;95673.09;4344209;32;20229;-59
2022/09/06 04:11:06;;;;;;;1.00;1.00;;;;;;;17.95;89.64;95671.97;4347083;32;20185;-60
2022/09/06 04:13:33;;;;;;;2.43;1.10;;;;;;;17.86;90.01;95672.06;4342563;32;20212;-58
2022/09/06 04:16:01;;;;;;;1.67;1.57;;;;;;;17.91;89.35;95674.53;4329347;32;20236;-58
2022/09/06 04:18:31;;;;;;;0.90;0.90;;;;;;;17.82;89.55;95685.38;4342598;32;20194;-59
2022/09/06 04:20:58;;;;;;;1.47;1.37;;;;;;;17.97;89.22;95686.63;4347800;32;20335;-59
2022/09/06 04:23:29;;;;;;;1.13;1.13;;;;;;;17.78;89.82;95686.34;4344521;32;20280;-62
2022/09/06 04:25:58;;;;;;;1.23;1.13;;;;;;;17.77;89.71;95685.56;4367563;32;20244;-61
2022/09/06 04:28:27;;;;;;;1.80;1.00;;;;;;;17.84;89.17;95675.09;4352811;32;20223;-59
2022/09/06 04:31:11;;;;;;;1.23;0.77;;;;;;;17.88;89.08;95675.19;4366782;32;20273;-61
2022/09/06 04:33:40;;;;;;;1.63;1.53;;;;;;;17.78;88.87;95673.72;4360935;32;20185;-59
2022/09/06 04:36:14;;;;;;;0.97;0.97;;;;;;;17.78;90.09;95668.34;4348862;32;20189;-59
2022/09/06 04:38:43;;;;;;;1.13;1.03;;;;;;;17.80;89.78;95673.38;4356243;32;20231;-59
2022/09/06 04:41:15;;;;;;;1.53;1.43;;;;;;;17.61;90.02;95670.38;4328657;32;20203;-59
2022/09/06 04:43:42;;;;;;;1.40;1.40;;;;;;;17.60;91.22;95674.94;4331878;32;20211;-60
2022/09/06 04:46:31;;;;;;;0.67;0.67;;;;;;;17.77;90.40;95682.88;4348273;32;20256;-60
2022/09/06 04:49:00;;;;;;;1.40;1.30;;;;;;;17.87;89.45;95680.91;4367831;32;20263;-59
2022/09/06 04:51:27;;;;;;;0.70;0.70;;;;;;;17.84;89.34;95679.66;4362237;32;20193;-59
2022/09/06 04:53:53;;;;;;;0.80;0.80;;;;;;;17.79;89.15;95694.06;4335053;32;20243;-60
2022/09/06 04:56:31;;;;;;;0.87;0.87;;;;;;;17.71;89.58;95688.78;4342479;32;20189;-59
2022/09/06 04:59:00;;;;;;;1.00;1.00;;;;;;;17.80;89.63;95695.63;4372752;32;20181;-59
2022/09/06 05:01:27;;;;;;;1.13;1.13;;;;;;;17.77;88.63;95696.28;4362563;32;20185;-59
2022/09/06 05:03:54;;;;;;;0.83;0.83;;;;;;;17.81;88.67;95691.84;4331551;32;20189;-59
2022/09/06 05:06:23;;;;;;;1.07;1.07;;;;;;;17.79;88.74;95693.28;4369330;32;20188;-59
2022/09/06 05:08:58;;;;;;;1.83;1.33;;;;;;;17.72;89.26;95683.06;4356885;32;20189;-59
2022/09/06 05:11:26;;;;;;;0.80;0.80;;;;;;;17.69;90.40;95693.69;4371158;32;20180;-59
2022/09/06 05:13:53;;;;;;;1.00;1.00;;;;;;;17.67;88.57;95688.63;4374116;32;20199;-59
2022/09/06 05:16:18;;;;;;;0.73;0.73;;;;;;;17.65;89.03;95690.88;4364916;32;20274;-59
2022/09/06 05:18:44;;;;;;;1.87;1.77;;;;;;;17.74;88.74;95698.84;4360871;32;20189;-59
2022/09/06 05:21:11;;;;;;;2.63;1.27;;;;;;;17.83;88.31;95703.03;4324615;32;20193;-59
2022/09/06 05:23:41;;;;;;;0.77;0.77;;;;;;;17.84;88.31;95706.50;4349521;32;20303;-59
2022/09/06 05:26:09;;;;;;;0.93;0.93;;;;;;;17.61;88.23;95711.41;4339150;32;20255;-59
2022/09/06 05:28:34;;;;;;;1.53;1.40;;;;;;;17.68;89.10;95714.34;4322106;32;20190;-59
2022/09/06 05:31:32;;;;;;;6.30;1.07;;;;;;;17.72;88.06;95722.53;4339844;32;20184;-59
2022/09/06 05:33:59;;;;;;;0.87;0.87;;;;;;;17.74;88.55;95726.47;4350997;32;20204;-59
2022/09/06 05:36:28;;;;;;;0.60;0.60;;;;;;;17.82;88.03;95722.16;4364445;32;20183;-59
2022/09/06 05:38:58;;;;;;;0.90;0.90;;;;;;;17.81;88.29;95723.28;4329501;32;20188;-59
2022/09/06 05:41:25;;;;;;;1.00;1.00;;;;;;;17.81;87.95;95729.41;4370600;32;20200;-58
2022/09/06 05:44:02;;;;;;;1.23;1.23;;;;;;;17.95;87.98;95739.09;4350799;32;20215;-59
2022/09/06 05:46:32;;;;;;;0.80;0.80;;;;;;;17.79;88.12;95741.59;4313555;32;20276;-59
2022/09/06 05:49:06;;;;;;;0.90;0.90;;;;;;;17.70;86.79;95738.19;4337329;32;20197;-59
2022/09/06 05:51:34;;;;;;;0.90;0.90;;;;;;;17.48;86.74;95744.62;4363596;32;20230;-59
2022/09/06 05:54:00;;;;;;;1.23;1.23;;;;;;;17.60;89.27;95751.97;4361423;32;20181;-60
2022/09/06 05:56:31;;;;;;;1.17;1.07;;;;;;;17.54;88.72;95748.69;4311907;32;20285;-59
2022/09/06 05:58:58;;;;;;;3.10;1.10;;;;;;;17.66;89.12;95756.88;4298321;32;20268;-59
2022/09/06 06:01:28;;;;;;;1.27;1.17;;;;;;;17.87;89.80;95772.19;4354013;32;20231;-59
2022/09/06 06:04:01;;;;;;;1.00;1.00;;;;;;;17.75;89.17;95771.00;4352917;32;20181;-59
2022/09/06 06:06:32;;;;;;;7.10;1.17;;;;;;;17.73;87.23;95765.16;4343297;32;20293;-59
2022/09/06 06:08:59;;;;;;;1.40;1.30;;;;;;;17.69;87.75;95769.59;4349377;32;20240;-59
2022/09/06 06:11:26;;;;;;;0.77;0.77;;;;;;;17.67;87.79;95776.41;4328941;32;20372;-58
2022/09/06 06:13:53;;;;;;;7.83;1.27;;;;;;;17.72;88.39;95779.69;4315783;32;20213;-59
2022/09/06 06:16:21;;;;;;;0.77;0.77;;;;;;;17.84;89.61;95784.34;4340263;32;20231;-59
2022/09/06 06:18:51;;;;;;;3.70;1.53;;;;;;;17.81;88.97;95798.41;4331704;32;20328;-59
2022/09/06 06:21:25;;;;;;;1.73;1.63;;;;;;;17.94;89.56;95801.94;4339775;32;20270;-59
2022/09/06 06:23:57;;;;;;;1.27;1.27;;;;;;;18.03;89.56;95797.31;4345440;32;20208;-59
2022/09/06 06:26:23;;;;;;;1.60;1.50;;;;;;;18.06;87.80;95792.06;4329184;32;20264;-59
2022/09/06 06:28:56;;;;;;;1.20;1.20;;;;;;;18.06;88.95;95786.69;4341148;32;20194;-59
2022/09/06 06:31:22;;;;;;;6.03;1.80;;;;;;;18.24;89.87;95792.69;4331182;32;20205;-59
2022/09/06 06:33:49;;;;;;;2.63;1.67;;;;;;;18.29;88.69;95797.84;4330029;32;20246;-59
2022/09/06 06:36:17;;;;;;;2.77;1.30;;;;;;;18.48;89.82;95792.00;4334570;32;20201;-60
2022/09/06 06:38:44;;;;;;;1.27;1.27;;;;;;;18.48;88.86;95792.00;4325867;32;20208;-59
2022/09/06 06:41:22;;;;;;;1.60;1.50;;;;;;;18.50;87.34;95797.78;4318766;32;20204;-60
2022/09/06 06:43:57;;;;;;;1.67;1.57;;;;;;;18.54;86.80;95794.13;4339783;32;20261;-59
2022/09/06 06:46:25;;;;;;;9.77;1.63;;;;;;;18.62;87.39;95794.41;4335181;32;20195;-59
2022/09/06 06:48:55;;;;;;;0.87;0.87;;;;;;;18.59;87.55;95795.03;4321195;32;20203;-59
2022/09/06 06:51:27;;;;;;;0.83;0.83;;;;;;;18.55;87.44;95808.34;4321653;32;20201;-59
2022/09/06 06:53:59;;;;;;;1.30;1.20;;;;;;;18.50;86.97;95808.53;4343405;32;20212;-60
2022/09/06 06:56:31;;;;;;;1.30;1.23;;;;;;;18.51;87.33;95810.91;4362116;32;20228;-59
2022/09/06 06:59:01;;;;;;;1.20;1.03;;;;;;;18.54;87.55;95814.84;4349333;32;20240;-59
2022/09/06 07:01:31;;;;;;;1.20;1.20;;;;;;;18.60;87.55;95832.34;4328790;32;20194;-58
2022/09/06 07:03:58;;;;;;;1.00;1.00;;;;;;;18.72;86.66;95832.37;4333952;32;20257;-60
2022/09/06 07:06:27;;;;;;;2.40;2.30;;;;;;;18.79;86.50;95827.25;4330568;32;20254;-60
2022/09/06 07:09:00;;;;;;;1.37;1.37;;;;;;;18.87;86.80;95823.69;4335915;32;20257;-59
2022/09/06 07:11:27;;;;;;;0.97;0.97;;;;;;;18.94;86.54;95817.75;4309781;32;20197;-59
2022/09/06 07:13:56;;;;;;;0.70;0.70;;;;;;;19.06;85.56;95817.78;4316294;32;20265;-60
2022/09/06 07:16:23;;;;;;;1.07;1.07;;;;;;;19.09;84.69;95814.44;4351770;32;20204;-59
2022/09/06 07:18:53;;;;;;;2.57;1.20;;;;;;;19.14;84.72;95806.12;4345005;32;20188;-59
2022/09/06 07:21:26;;;;;;;5.10;1.27;;;;;;;19.30;82.29;95814.31;4329393;32;20201;-59
2022/09/06 07:23:54;;;;;;;0.90;0.90;;;;;;;19.41;83.02;95825.41;4346266;32;20215;-59
2022/09/06 07:26:37;;;;;;;0.33;0.33;;;;;;;19.42;82.24;95835.06;4351868;32;20226;-59
2022/09/06 07:29:25;;;;;;;0.77;0.77;;;;;;;19.46;81.14;95831.34;4304535;32;20188;-59
2022/09/06 07:31:56;;;;;;;0.40;0.40;;;;;;;19.43;81.93;95842.00;4322907;32;20200;-59
2022/09/06 07:34:29;;;;;;;1.13;0.50;;;;;;;19.43;82.10;95836.62;4365810;32;20185;-59
2022/09/06 07:36:56;;;;;;;0.30;0.30;;;;;;;19.42;81.49;95837.75;4359311;32;20313;-59
2022/09/06 07:39:23;;;;;;;9.37;1.53;;;;;;;19.50;82.21;95834.97;4361207;32;20193;-60
2022/09/06 07:41:51;;;;;;;0.37;0.37;;;;;;;19.40;82.43;95832.69;4365773;32;20204;-59
2022/09/06 07:44:18;;;;;;;1.80;0.73;;;;;;;19.50;81.45;95826.13;4359282;32;20189;-59
2022/09/06 07:46:43;;;;;;;1.07;0.70;;;;;;;19.53;81.29;95825.44;4364145;32;20188;-59
2022/09/06 07:49:11;;;;;;;0.80;0.80;;;;;;;19.46;82.24;95822.50;4364423;32;20193;-59
2022/09/06 07:51:37;;;;;;;0.47;0.47;;;;;;;19.41;82.82;95830.78;4352856;32;20226;-59
2022/09/06 07:54:04;;;;;;;0.53;0.53;;;;;;;19.41;82.75;95830.78;4350553;32;20196;-59
2022/09/06 07:56:30;;;;;;;0.37;0.37;;;;;;;19.31;83.51;95833.94;4342810;32;20204;-58
2022/09/06 07:58:57;;;;;;;0.67;0.67;;;;;;;19.24;84.31;95829.13;4352358;32;20197;-59
2022/09/06 08:01:40;;;;;;;1.07;1.07;;;;;;;19.28;84.22;95818.47;4370930;32;20271;-59
2022/09/06 08:04:13;;;;;;;0.97;0.97;;;;;;;19.25;84.70;95822.63;4361058;32;20238;-59
2022/09/06 08:06:41;;;;;;;0.53;0.53;;;;;;;19.25;85.13;95827.22;4364159;32;20238;-59
2022/09/06 08:09:09;;;;;;;0.67;0.67;;;;;;;19.22;84.97;95807.94;4350322;32;20193;-59
2022/09/06 08:11:36;;;;;;;0.53;0.53;;;;;;;19.20;85.02;95810.16;4357559;32;20192;-66
2022/09/06 08:14:06;;;;;;;0.83;0.83;;;;;;;19.23;85.42;95808.72;4328354;32;20216;-60
2022/09/06 08:16:34;;;;;;;0.30;0.30;;;;;;;19.27;85.44;95798.84;4353838;32;20189;-58
2022/09/06 08:19:07;;;;;;;1.00;0.90;;;;;;;19.40;84.95;95783.47;4344336;32;20245;-58
2022/09/06 08:21:34;;;;;;;0.37;0.37;;;;;;;19.47;85.05;95791.78;4282164;33;20194;-58
2022/09/06 08:24:11;;;;;;;0.50;0.50;;;;;;;19.59;84.70;95785.59;4326299;32;20235;-57
2022/09/06 08:26:41;;;;;;;0.40;0.40;;;;;;;19.73;84.49;95777.97;4336213;32;20189;-58
2022/09/06 08:29:07;;;;;;;0.90;0.87;;;;;;;19.91;83.97;95773.88;4351692;32;20280;-58
2022/09/06 08:31:37;;;;;;;0.60;0.60;;;;;;;19.98;84.04;95767.88;4314725;32;20213;-59
2022/09/06 08:34:03;;;;;;;3.57;3.27;;;;;;;20.08;83.13;95767.41;4322214;32;20192;-58
2022/09/06 08:36:31;;;;;;;1.53;1.53;;;;;;;20.13;83.15;95765.28;4322573;32;20264;-59
2022/09/06 08:38:58;;;;;;;1.20;0.67;;;;;;;20.23;83.16;95764.75;4328241;32;20312;-59
2022/09/06 08:41:31;;;;;;;5.60;4.50;;;;;;;20.22;82.79;95767.81;4332968;32;20197;-58
2022/09/06 08:44:10;;;;;;;5.97;1.47;;;;;;;20.24;82.12;95760.16;4316386;32;20255;-60
2022/09/06 08:47:05;;;;;;;2.03;1.93;;;;;;;20.22;81.74;95757.81;4323099;33;20223;-58
2022/09/06 08:49:37;;;;;;;1.80;1.53;;;;;;;20.27;82.28;95758.69;4286875;32;20236;-59
2022/09/06 08:52:41;;;;;;;4.63;3.83;;;;;;;20.30;80.28;95753.41;4347883;32;20193;-57
2022/09/06 08:55:29;;;;;;;3.00;2.33;;;;;;;20.37;79.25;95752.84;4315247;32;20212;-59
2022/09/06 08:58:25;;;;;;;2.73;2.53;;;;;;;20.47;79.02;95758.50;4328554;33;20331;-59
2022/09/06 09:00:58;;;;;;;1.93;1.77;;;;;;;20.50;79.33;95763.22;4336345;32;20213;-59
2022/09/06 09:03:31;;;;;;;0.70;0.70;;;;;;;20.43;79.69;95768.41;4341284;32;20207;-59
2022/09/06 09:06:00;;;;;;;0.50;0.50;;;;;;;20.44;78.26;95775.38;4322753;33;20253;-59
2022/09/06 09:09:05;;;;;;;0.53;0.53;;;;;;;20.43;78.61;95763.00;4331004;32;20299;-58
2022/09/06 09:11:32;;;;;;;1.23;0.70;;;;;;;20.34;79.14;95754.28;4331257;33;20185;-58
2022/09/06 09:14:23;;;;;;;1.03;1.03;;;;;;;20.38;80.25;95749.78;4337439;32;20332;-59
2022/09/06 09:16:53;;;;;;;1.07;0.70;;;;;;;20.41;80.30;95738.31;4334475;32;20193;-59
2022/09/06 09:19:19;;;;;;;0.53;0.50;;;;;;;20.41;81.38;95732.13;4354321;32;20211;-58
2022/09/06 09:21:46;;;;;;;1.80;0.83;;;;;;;20.34;80.60;95730.03;4339798;32;20189;-59
2022/09/06 09:24:14;;;;;;;0.30;0.30;;;;;;;20.31;81.37;95729.94;4344808;32;20188;-59
2022/09/06 09:26:53;;;;;;;0.67;0.67;;;;;;;20.37;81.08;95721.25;4357669;32;20211;-57
2022/09/06 09:29:21;;;;;;;0.40;0.40;;;;;;;20.37;81.39;95717.81;4346550;32;20242;-58
2022/09/06 09:31:53;;;;;;;0.50;0.50;;;;;;;20.39;81.45;95719.00;4343588;32;20304;-58
2022/09/06 09:34:39;;;;;;;0.30;0.30;;;;;;;20.42;80.75;95714.84;4337123;32;20243;-58
2022/09/06 09:37:31;;;;;;;0.30;0.30;;;;;;;20.40;80.54;95712.50;4336722;32;20208;-59
2022/09/06 09:39:57;;;;;;;0.53;0.53;;;;;;;20.51;79.84;95710.87;4326626;32;20207;-58
2022/09/06 09:42:36;;;;;;;0.77;0.77;;;;;;;20.61;79.36;95708.75;4347955;32;20197;-58
2022/09/06 09:45:29;;;;;;;2.80;0.93;;;;;;;20.62;79.03;95699.53;4344675;32;20212;-57
2022/09/06 09:47:56;;;;;;;4.27;0.83;;;;;;;20.71;77.55;95694.78;4345311;32;20264;-58
2022/09/06 09:50:42;;;;;;;0.50;0.50;;;;;;;20.77;77.24;95698.78;4353380;32;20205;-58
2022/09/06 09:53:16;;;;;;;0.30;0.30;;;;;;;20.85;76.97;95708.59;4323405;32;20235;-60
2022/09/06 09:55:44;;;;;;;0.33;0.30;;;;;;;20.86;76.24;95696.66;4356262;32;20207;-58
2022/09/06 09:58:41;;;;;;;0.23;0.13;;;;;;;20.89;76.37;95707.53;4324357;32;20198;-58
2022/09/06 10:01:20;;;;;;;0.27;0.27;;;;;;;20.87;75.97;95709.81;4322288;32;20212;-58
2022/09/06 10:03:49;;;;;;;0.40;0.40;;;;;;;20.90;75.24;95705.62;4314664;32;20252;-58
2022/09/06 10:06:25;;;;;;;0.10;0.10;;;;;;;20.95;75.59;95689.19;4341650;32;20189;-58
2022/09/06 10:08:50;;;;;;;0.10;0.10;;;;;;;21.07;74.52;95688.28;4332583;32;20192;-58
2022/09/06 10:11:56;;;;;;;0.30;0.30;;;;;;;21.09;73.98;95684.09;4341480;32;20193;-58
2022/09/06 10:14:48;;;;;;;0.33;0.33;;;;;;;21.15;74.38;95680.00;4323184;32;20213;-58
2022/09/06 10:17:25;;;;;;;0.23;0.23;;;;;;;21.17;74.48;95685.06;4355688;32;20185;-58
2022/09/06 10:19:53;;;;;;;0.20;0.20;;;;;;;21.20;74.25;95682.44;4331155;32;20197;-59
2022/09/06 10:22:30;;;;;;;0.10;0.10;;;;;;;21.25;73.78;95684.09;4337970;32;20220;-58
2022/09/06 10:25:43;;;;;;;0.57;0.57;;;;;;;21.35;73.67;95675.47;4341829;32;20282;-59
2022/09/06 10:28:26;;;;;;;0.43;0.43;;;;;;;21.45;73.09;95672.19;4347804;32;20232;-59
2022/09/06 10:31:14;;;;;;;2.53;1.23;;;;;;;21.53;71.73;95678.53;4355081;32;20197;-59
2022/09/06 10:34:20;;;;;;;0.33;0.33;;;;;;;21.53;72.37;95673.91;4348351;32;20196;-59
2022/09/06 10:37:20;;;;;;;0.23;0.23;;;;;;;21.51;72.25;95680.78;4307264;32;20297;-59
2022/09/06 10:39:54;;;;;;;0.47;0.47;;;;;;;21.56;71.20;95675.12;4308929;32;20208;-59
2022/09/06 10:42:33;;;;;;;0.20;0.20;;;;;;;21.50;72.05;95679.22;4303234;32;20186;-58
2022/09/06 10:45:15;;;;;;;8.27;0.97;;;;;;;21.56;72.18;95672.44;4283797;32;20261;-59
2022/09/06 10:48:15;;;;;;;0.30;0.30;;;;;;;21.60;72.20;95679.47;4301064;33;20197;-59
2022/09/06 10:50:58;;;;;;;0.60;0.53;;;;;;;21.62;72.43;95679.09;4311995;32;20220;-59
2022/09/06 10:53:45;;;;;;;0.37;0.37;;;;;;;21.62;72.12;95670.97;4345890;32;20195;-58
2022/09/06 10:56:55;;;;;;;0.30;0.30;;;;;;;21.67;71.91;95664.53;4316898;32;20238;-58
2022/09/06 10:59:38;;;;;;;0.50;0.50;;;;;;;21.73;72.45;95668.50;4320541;32;20238;-58
2022/09/06 11:02:41;;;;;;;0.90;0.90;;;;;;;21.73;73.02;95666.59;4337536;32;20185;-58
2022/09/06 11:05:14;;;;;;;0.40;0.40;;;;;;;21.80;72.30;95664.03;4347402;32;20256;-58
2022/09/06 11:07:51;;;;;;;0.57;0.57;;;;;;;21.92;71.41;95661.19;4326245;32;20197;-58
2022/09/06 11:10:31;;;;;;;0.63;0.27;;;;;;;22.00;72.60;95653.22;4314811;32;20213;-58
2022/09/06 11:13:18;;;;;;;0.30;0.30;;;;;;;22.02;73.02;95651.75;4293981;32;20357;-58
2022/09/06 11:16:23;;;;;;;0.50;0.50;;;;;;;22.06;71.08;95646.38;4335751;32;20205;-58
2022/09/06 11:19:18;;;;;;;0.53;0.53;;;;;;;22.11;70.21;95646.09;4347015;32;20244;-58
2022/09/06 11:22:06;;;;;;;2.93;2.13;;;;;;;22.18;71.09;95647.00;4325257;32;20193;-57
2022/09/06 11:25:15;;;;;;;0.50;0.50;;;;;;;22.28;69.62;95645.62;4337035;32;20207;-58
2022/09/06 11:27:55;;;;;;;2.93;2.83;;;;;;;22.33;69.45;95639.94;4352287;32;20218;-58
2022/09/06 11:30:24;;;;;;;1.03;1.03;;;;;;;22.40;69.30;95640.06;4312630;32;20201;-58
2022/09/06 11:33:24;;;;;;;1.23;1.03;;;;;;;22.51;69.21;95638.28;4311587;32;20253;-58
2022/09/06 11:36:13;;;;;;;2.53;1.07;;;;;;;22.56;68.61;95635.28;4343909;32;20236;-58
2022/09/06 11:38:42;;;;;;;1.90;1.80;;;;;;;22.70;67.76;95633.94;4332192;32;20198;-58
2022/09/06 11:41:17;;;;;;;2.53;1.83;;;;;;;22.68;68.36;95633.53;4337795;32;20192;-59
2022/09/06 11:43:50;;;;;;;1.13;0.70;;;;;;;22.77;69.22;95639.47;4368379;32;20192;-58
2022/09/06 11:46:34;;;;;;;0.60;0.60;;;;;;;22.88;67.90;95632.31;4342012;32;20197;-58
2022/09/06 11:49:40;;;;;;;3.60;0.77;;;;;;;22.85;67.55;95628.44;4340086;32;20248;-58
2022/09/06 11:52:43;;;;;;;0.63;0.40;;;;;;;22.91;68.16;95628.88;4275173;33;20193;-59
2022/09/06 11:55:11;;;;;;;7.63;0.97;;;;;;;23.06;67.71;95630.66;4318745;33;20247;-59
2022/09/06 11:57:40;;;;;;;0.80;0.80;;;;;;;23.02;67.69;95632.53;4353379;32;20203;-58
2022/09/06 12:00:16;;;;;;;2.40;0.80;;;;;;;23.05;67.17;95626.41;4343748;32;20193;-59
2022/09/06 12:02:43;;;;;;;0.40;0.40;;;;;;;23.11;66.53;95627.63;4346203;32;20188;-59
2022/09/06 12:05:12;;;;;;;0.73;0.73;;;;;;;23.12;65.55;95625.69;4320383;32;20201;-59
2022/09/06 12:08:16;;;;;;;1.13;0.63;;;;;;;23.09;66.36;95613.66;4345840;32;20185;-59
2022/09/06 12:10:51;;;;;;;0.47;0.47;;;;;;;23.13;67.04;95619.13;4357342;32;20196;-60